Time;durP1;ratioP1;P1;durP2;ratioP2;P2;SDS_P1;SDS_P2;PMS_P1;PMS_P2;Temp;Humidity;BMP_temperature;BMP_pressure;BME280_temperature;BME280_humidity;BME280_pressure;Samples;Min_cycle;Max_cycle;Signal;HPM_P1;HPM_P2
2023/12/20 00:01:50;;;;;;;0.30;0.30;;;9.80;83.60;;;;;;4947588;29;20485;-77
2023/12/20 00:04:16;;;;;;;0.22;0.22;;;9.80;83.60;;;;;;4944257;29;20159;-78
2023/12/20 00:06:42;;;;;;;0.50;0.30;;;9.70;83.40;;;;;;4945314;29;20031;-77
2023/12/20 00:09:08;;;;;;;0.60;0.40;;;9.80;83.40;;;;;;4947236;29;20415;-78
2023/12/20 00:11:34;;;;;;;0.57;0.22;;;9.70;83.40;;;;;;4931859;29;20044;-78
2023/12/20 00:14:00;;;;;;;0.90;0.40;;;9.70;83.20;;;;;;4933456;29;20074;-75
2023/12/20 00:16:26;;;;;;;0.95;0.40;;;9.70;83.20;;;;;;4945043;28;20035;-78
2023/12/20 00:18:52;;;;;;;0.60;0.40;;;9.70;83.30;;;;;;4932513;29;20391;-78
2023/12/20 00:21:18;;;;;;;0.63;0.30;;;9.70;83.40;;;;;;4946302;29;20122;-81
2023/12/20 00:23:44;;;;;;;0.63;0.45;;;9.70;83.30;;;;;;4946109;29;20032;-79
2023/12/20 00:26:10;;;;;;;0.63;0.50;;;9.70;83.30;;;;;;4945678;29;20043;-82
2023/12/20 00:28:36;;;;;;;0.50;0.40;;;9.70;83.30;;;;;;4944922;29;20027;-81
2023/12/20 00:31:02;;;;;;;0.38;0.38;;;9.60;83.20;;;;;;4929250;29;20031;-79
2023/12/20 00:33:28;;;;;;;0.30;0.30;;;9.60;83.30;;;;;;4944369;29;20031;-80
2023/12/20 00:35:54;;;;;;;0.57;0.57;;;9.60;83.20;;;;;;4926410;29;20038;-80
2023/12/20 00:38:20;;;;;;;1.27;0.75;;;9.60;83.30;;;;;;4945772;29;21370;-79
2023/12/20 00:40:46;;;;;;;1.13;0.52;;;9.60;83.30;;;;;;4943317;29;20050;-81
2023/12/20 00:43:12;;;;;;;1.17;0.40;;;9.60;83.30;;;;;;4945229;29;20691;-81
2023/12/20 00:45:39;;;;;;;1.05;0.50;;;9.60;83.30;;;;;;4945935;29;20130;-79
2023/12/20 00:48:05;;;;;;;0.50;0.40;;;9.60;83.30;;;;;;4945839;29;20050;-80
2023/12/20 00:50:31;;;;;;;0.88;0.57;;;9.60;83.80;;;;;;4944060;29;20035;-80
2023/12/20 00:52:57;;;;;;;0.38;0.35;;;9.60;83.30;;;;;;4946390;29;20046;-79
2023/12/20 00:55:23;;;;;;;0.40;0.40;;;9.50;83.30;;;;;;4944694;29;20036;-80
2023/12/20 00:57:49;;;;;;;0.45;0.40;;;9.60;83.30;;;;;;4944502;29;20118;-80
2023/12/20 01:00:15;;;;;;;0.82;0.43;;;9.60;83.20;;;;;;4943661;29;20043;-80
2023/12/20 01:02:41;;;;;;;0.45;0.45;;;9.60;83.20;;;;;;4944414;29;20533;-77
2023/12/20 01:05:09;;;;;;;0.45;0.40;;;9.50;83.00;;;;;;4931107;29;20095;-80
2023/12/20 01:07:35;;;;;;;0.98;0.60;;;9.50;83.00;;;;;;4931105;29;20040;-80
2023/12/20 01:10:01;;;;;;;0.80;0.70;;;9.50;82.90;;;;;;4945892;29;20501;-77
2023/12/20 01:12:27;;;;;;;0.95;0.55;;;9.50;83.00;;;;;;4944723;28;20031;-82
2023/12/20 01:14:53;;;;;;;1.45;0.65;;;9.50;83.10;;;;;;4942193;29;20063;-82
2023/12/20 01:17:19;;;;;;;0.80;0.60;;;9.50;83.00;;;;;;4926646;29;20043;-81
2023/12/20 01:19:45;;;;;;;0.70;0.70;;;9.50;83.00;;;;;;4943977;29;20054;-81
2023/12/20 01:22:11;;;;;;;0.70;0.50;;;9.50;83.00;;;;;;4930493;29;20867;-81
2023/12/20 01:24:37;;;;;;;1.02;0.57;;;9.50;83.10;;;;;;4943651;29;20050;-76
2023/12/20 01:27:03;;;;;;;0.68;0.68;;;9.50;83.20;;;;;;4946405;28;20473;-79
2023/12/20 01:29:29;;;;;;;1.63;0.88;;;9.50;83.10;;;;;;4942492;29;20040;-79
2023/12/20 01:31:55;;;;;;;1.02;0.63;;;9.50;83.20;;;;;;4944848;29;20038;-79
2023/12/20 01:34:21;;;;;;;1.10;0.70;;;9.50;83.30;;;;;;4944490;29;20035;-79
2023/12/20 01:36:47;;;;;;;0.80;0.60;;;9.50;83.40;;;;;;4943508;29;20434;-78
2023/12/20 01:39:13;;;;;;;1.45;0.90;;;9.50;83.20;;;;;;4942793;29;20564;-79
2023/12/20 01:41:38;;;;;;;1.25;0.75;;;9.50;83.30;;;;;;4930052;29;20035;-79
2023/12/20 01:44:04;;;;;;;0.70;0.70;;;9.50;83.20;;;;;;4945396;29;20047;-80
2023/12/20 01:46:30;;;;;;;0.93;0.82;;;9.50;83.20;;;;;;4942370;29;20038;-79
2023/12/20 01:48:57;;;;;;;1.40;1.05;;;9.50;83.20;;;;;;4943912;29;20984;-77
2023/12/20 01:51:23;;;;;;;0.70;0.70;;;9.50;83.20;;;;;;4944114;29;20031;-80
2023/12/20 01:53:49;;;;;;;0.90;0.90;;;9.50;83.10;;;;;;4922803;29;20071;-79
2023/12/20 01:56:16;;;;;;;1.52;0.65;;;9.50;83.00;;;;;;4943562;29;20051;-80
2023/12/20 01:58:47;;;;;;;1.40;0.88;;;9.50;83.00;;;;;;4945079;29;20478;-81
2023/12/20 02:01:13;;;;;;;2.35;0.75;;;9.50;83.00;;;;;;4943208;29;20130;-80
2023/12/20 02:03:41;;;;;;;0.75;0.68;;;9.40;82.80;;;;;;4944282;28;20122;-79
2023/12/20 02:06:08;;;;;;;1.48;0.55;;;9.40;82.70;;;;;;4925138;29;20040;-79
2023/12/20 02:08:34;;;;;;;0.77;0.70;;;9.40;82.80;;;;;;4943140;28;20122;-76
2023/12/20 02:11:01;;;;;;;0.90;0.80;;;9.40;82.80;;;;;;4942399;29;20047;-79
2023/12/20 02:13:27;;;;;;;0.70;0.70;;;9.40;82.80;;;;;;4926275;29;20087;-80
2023/12/20 02:15:54;;;;;;;0.55;0.55;;;9.40;82.70;;;;;;4944130;28;20042;-80
2023/12/20 02:18:21;;;;;;;1.00;0.90;;;9.40;82.90;;;;;;4943906;29;20027;-78
2023/12/20 02:20:47;;;;;;;0.55;0.52;;;9.40;82.90;;;;;;4927379;29;20178;-80
2023/12/20 02:23:13;;;;;;;1.58;0.60;;;9.40;82.80;;;;;;4942001;28;20039;-80
2023/12/20 02:25:39;;;;;;;1.08;0.80;;;9.40;82.70;;;;;;4944958;29;20040;-81
2023/12/20 02:28:06;;;;;;;0.77;0.70;;;9.40;82.60;;;;;;4945823;29;20414;-80
2023/12/20 02:30:32;;;;;;;1.15;0.70;;;9.40;82.80;;;;;;4944465;29;20035;-78
2023/12/20 02:33:01;;;;;;;1.48;0.70;;;9.40;82.80;;;;;;4942402;29;20094;-79
2023/12/20 02:35:27;;;;;;;0.50;0.50;;;9.40;82.70;;;;;;4929985;29;20039;-82
2023/12/20 02:37:52;;;;;;;0.50;0.50;;;9.40;82.60;;;;;;4943182;29;20054;-82
2023/12/20 02:40:18;;;;;;;3.65;0.60;;;9.40;82.60;;;;;;4926152;29;20102;-81
2023/12/20 02:42:44;;;;;;;1.15;0.80;;;9.40;82.60;;;;;;4940718;29;20227;-81
2023/12/20 02:45:10;;;;;;;0.40;0.40;;;9.40;82.40;;;;;;4943057;29;20050;-82
2023/12/20 02:47:36;;;;;;;0.38;0.38;;;9.40;82.40;;;;;;4944040;29;20059;-78
2023/12/20 02:50:03;;;;;;;1.83;0.60;;;9.40;82.40;;;;;;4926294;29;20031;-82
2023/12/20 02:52:29;;;;;;;0.95;0.50;;;9.40;82.40;;;;;;4942237;29;20134;-82
2023/12/20 02:54:55;;;;;;;1.27;0.60;;;9.30;82.30;;;;;;4945141;29;20043;-82
2023/12/20 02:57:21;;;;;;;1.15;0.70;;;9.40;82.40;;;;;;4943033;29;20042;-80
2023/12/20 02:59:47;;;;;;;1.30;0.65;;;9.40;82.30;;;;;;4942881;28;20506;-81
2023/12/20 03:02:13;;;;;;;1.23;0.73;;;9.40;82.40;;;;;;4942256;29;20081;-81
2023/12/20 03:04:39;;;;;;;1.20;0.40;;;9.40;82.20;;;;;;4929294;29;20048;-80
2023/12/20 03:07:05;;;;;;;1.08;0.40;;;9.40;82.20;;;;;;4943552;29;20066;-77
2023/12/20 03:09:31;;;;;;;0.80;0.60;;;9.30;82.00;;;;;;4943823;29;20031;-82
2023/12/20 03:11:57;;;;;;;1.27;0.50;;;9.30;82.10;;;;;;4941038;29;20050;-80
2023/12/20 03:14:23;;;;;;;1.75;0.70;;;9.30;82.10;;;;;;4928371;29;20554;-81
2023/12/20 03:16:51;;;;;;;5.05;0.52;;;9.30;82.00;;;;;;4942924;29;20042;-82
2023/12/20 03:19:21;;;;;;;1.10;0.57;;;9.30;82.10;;;;;;4924054;29;20121;-79
2023/12/20 03:21:47;;;;;;;1.40;0.70;;;9.30;82.00;;;;;;4942803;29;20035;-81
2023/12/20 03:24:13;;;;;;;0.82;0.50;;;9.30;81.80;;;;;;4941301;29;20027;-83
2023/12/20 03:26:39;;;;;;;1.05;0.60;;;9.30;81.80;;;;;;4943908;29;20032;-85
2023/12/20 03:29:05;;;;;;;2.00;0.50;;;9.30;81.60;;;;;;4929394;29;20039;-82
2023/12/20 03:31:31;;;;;;;1.33;0.50;;;9.30;81.60;;;;;;4947764;29;20042;-86
2023/12/20 03:33:57;;;;;;;0.77;0.50;;;9.30;81.60;;;;;;4947954;29;20937;-81
2023/12/20 03:36:22;;;;;;;1.65;0.60;;;9.30;81.50;;;;;;4944891;29;20023;-84
2023/12/20 03:38:48;;;;;;;1.48;0.68;;;9.40;81.50;;;;;;4945411;29;20044;-85
2023/12/20 03:41:15;;;;;;;0.45;0.45;;;9.30;81.60;;;;;;4946856;29;20046;-85
2023/12/20 03:43:41;;;;;;;0.98;0.70;;;9.40;81.60;;;;;;4946127;29;20034;-85
2023/12/20 03:46:09;;;;;;;2.50;1.02;;;9.30;81.60;;;;;;4944698;29;20039;-85
2023/12/20 03:48:35;;;;;;;1.55;0.73;;;9.30;81.50;;;;;;4932551;29;20253;-84
2023/12/20 03:51:01;;;;;;;1.40;0.93;;;9.40;81.50;;;;;;4943982;29;20035;-79
2023/12/20 03:53:27;;;;;;;1.15;0.70;;;9.30;81.50;;;;;;4945653;29;20395;-82
2023/12/20 03:55:53;;;;;;;0.80;0.80;;;9.30;81.50;;;;;;4945883;28;20178;-80
2023/12/20 03:58:19;;;;;;;0.70;0.60;;;9.30;81.60;;;;;;4916386;29;20059;-82
2023/12/20 04:00:45;;;;;;;1.27;0.80;;;9.30;82.20;;;;;;4947039;28;20454;-83
2023/12/20 04:03:13;;;;;;;0.80;0.80;;;9.30;81.60;;;;;;4944898;29;20031;-82
2023/12/20 04:05:40;;;;;;;1.20;0.88;;;9.30;82.10;;;;;;4944023;29;20507;-81
2023/12/20 04:08:08;;;;;;;0.80;0.80;;;9.30;82.00;;;;;;4944343;29;20519;-83
2023/12/20 04:10:34;;;;;;;2.22;1.15;;;9.30;82.10;;;;;;4932071;29;20074;-79
2023/12/20 04:13:00;;;;;;;1.25;0.70;;;9.30;82.20;;;;;;4944705;29;20075;-79
2023/12/20 04:15:26;;;;;;;1.17;0.88;;;9.30;82.40;;;;;;4945605;28;20726;-83
2023/12/20 04:17:52;;;;;;;1.45;0.80;;;9.30;82.40;;;;;;4928780;29;20446;-84
2023/12/20 04:20:18;;;;;;;1.58;0.93;;;9.30;82.50;;;;;;4946450;29;20054;-83
2023/12/20 04:22:44;;;;;;;2.28;1.13;;;9.20;82.50;;;;;;4946730;29;20031;-80
2023/12/20 04:25:10;;;;;;;0.80;0.80;;;9.30;82.60;;;;;;4943322;29;20051;-79
2023/12/20 04:27:36;;;;;;;1.30;1.00;;;9.20;82.60;;;;;;4947420;29;20077;-79
2023/12/20 04:30:02;;;;;;;1.10;1.00;;;9.30;82.60;;;;;;4945229;29;20134;-80
2023/12/20 04:32:29;;;;;;;1.48;1.10;;;9.30;82.60;;;;;;4944284;29;20106;-79
2023/12/20 04:34:55;;;;;;;1.20;1.10;;;9.30;82.60;;;;;;4945691;29;20490;-76
2023/12/20 04:37:21;;;;;;;0.98;0.98;;;9.20;82.70;;;;;;4930992;29;20067;-78
2023/12/20 04:39:47;;;;;;;1.20;1.00;;;9.30;82.80;;;;;;4932115;29;20390;-79
2023/12/20 04:42:13;;;;;;;1.65;1.15;;;9.30;82.70;;;;;;4930036;29;20074;-78
2023/12/20 04:44:39;;;;;;;1.25;1.15;;;9.30;82.80;;;;;;4915667;29;20510;-82
2023/12/20 04:47:05;;;;;;;1.67;1.30;;;9.30;83.00;;;;;;4916906;29;20470;-83
2023/12/20 04:49:31;;;;;;;1.48;1.25;;;9.30;83.00;;;;;;4930128;29;20036;-82
2023/12/20 04:51:57;;;;;;;2.03;1.33;;;9.30;83.00;;;;;;4931671;28;20114;-84
2023/12/20 04:54:23;;;;;;;2.45;1.48;;;9.20;82.90;;;;;;4945962;29;20533;-79
2023/12/20 04:56:49;;;;;;;2.95;1.50;;;9.30;83.20;;;;;;4949006;28;20063;-77
2023/12/20 04:59:15;;;;;;;2.58;1.63;;;9.30;83.30;;;;;;4942118;29;20047;-77
2023/12/20 05:01:41;;;;;;;1.77;1.42;;;9.30;83.20;;;;;;4941813;29;20050;-76
2023/12/20 05:04:07;;;;;;;1.40;1.30;;;9.30;83.20;;;;;;4905247;28;20466;-84
2023/12/20 05:06:33;;;;;;;4.13;1.58;;;9.30;83.20;;;;;;4931147;29;20556;-80
2023/12/20 05:08:59;;;;;;;3.33;1.58;;;9.30;83.70;;;;;;4943291;29;20039;-79
2023/12/20 05:11:25;;;;;;;2.58;1.70;;;9.30;84.30;;;;;;4944867;29;20490;-79
2023/12/20 05:13:51;;;;;;;4.82;1.98;;;9.30;84.80;;;;;;4945962;29;20031;-79
2023/12/20 05:16:17;;;;;;;2.78;2.20;;;9.30;84.70;;;;;;4931391;29;20090;-80
2023/12/20 05:18:45;;;;;;;3.15;2.00;;;9.30;84.60;;;;;;4932037;29;20486;-80
2023/12/20 05:21:11;;;;;;;4.18;2.25;;;9.30;84.30;;;;;;4924763;29;20151;-79
2023/12/20 05:23:37;;;;;;;3.67;2.08;;;9.30;84.20;;;;;;4929325;29;20127;-79
2023/12/20 05:26:03;;;;;;;3.22;2.10;;;9.30;84.10;;;;;;4945978;29;20031;-79
2023/12/20 05:28:29;;;;;;;2.85;2.17;;;9.30;83.70;;;;;;4944782;29;20051;-79
2023/12/20 05:30:55;;;;;;;2.17;1.88;;;9.30;83.70;;;;;;4925666;29;20536;-79
2023/12/20 05:33:21;;;;;;;3.72;2.13;;;9.30;83.60;;;;;;4915810;29;20403;-79
2023/12/20 05:35:47;;;;;;;3.33;1.90;;;9.30;83.40;;;;;;4931471;29;20046;-79
2023/12/20 05:38:13;;;;;;;2.25;1.45;;;9.30;83.30;;;;;;4916864;29;20035;-80
2023/12/20 05:40:39;;;;;;;2.97;1.83;;;9.30;83.30;;;;;;4932288;29;20043;-80
2023/12/20 05:43:05;;;;;;;4.53;1.92;;;9.30;83.20;;;;;;4931550;29;20035;-81
2023/12/20 05:45:31;;;;;;;3.08;2.00;;;9.30;83.10;;;;;;4944034;29;20031;-86
2023/12/20 05:47:58;;;;;;;2.22;1.77;;;9.30;83.20;;;;;;4932359;28;20173;-85
2023/12/20 05:50:25;;;;;;;2.70;1.58;;;9.30;83.10;;;;;;4910073;29;20039;-81
2023/12/20 05:52:51;;;;;;;2.58;1.90;;;9.30;83.00;;;;;;4930547;29;20518;-81
2023/12/20 05:55:17;;;;;;;1.60;1.48;;;9.30;82.90;;;;;;4931117;29;20953;-79
2023/12/20 05:57:43;;;;;;;3.20;1.80;;;9.30;83.00;;;;;;4943875;29;20039;-78
2023/12/20 06:00:10;;;;;;;2.28;1.60;;;9.30;83.10;;;;;;4930502;29;20070;-79
2023/12/20 06:02:40;;;;;;;3.40;1.70;;;9.30;83.20;;;;;;4942898;29;20130;-78
2023/12/20 06:05:06;;;;;;;2.42;2.00;;;9.30;83.20;;;;;;4943612;29;20589;-79
2023/12/20 06:07:32;;;;;;;2.42;1.67;;;9.30;83.20;;;;;;4943593;28;20031;-79
2023/12/20 06:09:58;;;;;;;2.47;1.92;;;9.30;83.10;;;;;;4924909;29;20414;-80
2023/12/20 06:12:26;;;;;;;3.28;1.52;;;9.30;83.00;;;;;;4938721;28;20043;-79
2023/12/20 06:14:52;;;;;;;2.22;1.63;;;9.30;82.90;;;;;;4927239;29;20035;-79
2023/12/20 06:17:18;;;;;;;2.05;1.17;;;9.30;82.80;;;;;;4927883;29;20046;-81
2023/12/20 06:19:47;;;;;;;2.40;1.75;;;9.30;82.70;;;;;;4944498;29;20047;-79
2023/12/20 06:22:14;;;;;;;1.85;1.38;;;9.30;82.80;;;;;;4943778;29;20036;-80
2023/12/20 06:24:40;;;;;;;2.70;2.17;;;9.30;82.80;;;;;;4932306;29;20038;-81
2023/12/20 06:27:06;;;;;;;1.92;1.60;;;9.30;82.80;;;;;;4928368;29;20427;-80
2023/12/20 06:29:34;;;;;;;3.17;1.50;;;9.30;82.80;;;;;;4942734;29;20039;-80
2023/12/20 06:32:00;;;;;;;2.72;1.50;;;9.30;82.70;;;;;;4926824;29;20043;-82
2023/12/20 06:34:26;;;;;;;1.67;1.23;;;9.30;82.70;;;;;;4914711;29;20473;-83
2023/12/20 06:36:52;;;;;;;3.75;1.45;;;9.30;82.70;;;;;;4930612;29;20035;-81
2023/12/20 06:39:18;;;;;;;3.35;1.52;;;9.30;82.80;;;;;;4915103;29;20410;-79
2023/12/20 06:41:44;;;;;;;3.40;1.60;;;9.30;82.70;;;;;;4941589;29;20070;-79
2023/12/20 06:44:10;;;;;;;1.92;1.60;;;9.30;82.70;;;;;;4941918;28;20105;-79
2023/12/20 06:46:36;;;;;;;3.03;1.63;;;9.30;82.70;;;;;;4927525;29;20490;-80
2023/12/20 06:49:02;;;;;;;3.80;1.80;;;9.30;82.90;;;;;;4943575;28;20023;-79
2023/12/20 06:51:30;;;;;;;3.28;1.50;;;9.30;82.80;;;;;;4915084;29;20501;-79
2023/12/20 06:53:56;;;;;;;2.78;1.65;;;9.40;82.80;;;;;;4924612;29;20038;-79
2023/12/20 06:56:22;;;;;;;2.85;1.52;;;9.30;82.60;;;;;;4942650;29;20034;-80
2023/12/20 06:58:48;;;;;;;3.13;1.90;;;9.30;82.60;;;;;;4929811;29;20035;-80
2023/12/20 07:01:15;;;;;;;4.00;1.75;;;9.40;82.60;;;;;;4942989;29;20050;-80
2023/12/20 07:03:41;;;;;;;2.58;1.55;;;9.30;82.40;;;;;;4914233;29;20062;-79
2023/12/20 07:06:07;;;;;;;1.98;1.48;;;9.30;82.30;;;;;;4927743;29;20046;-80
2023/12/20 07:08:34;;;;;;;2.88;1.50;;;9.40;82.30;;;;;;4942774;29;20032;-79
2023/12/20 07:11:00;;;;;;;2.90;1.60;;;9.40;82.20;;;;;;4943811;29;20454;-79
2023/12/20 07:13:26;;;;;;;4.85;2.03;;;9.40;82.10;;;;;;4930925;29;20043;-81
2023/12/20 07:15:52;;;;;;;4.65;1.80;;;9.40;82.10;;;;;;4913819;29;20042;-80
2023/12/20 07:18:18;;;;;;;2.08;1.50;;;9.40;82.00;;;;;;4946339;29;20035;-80
2023/12/20 07:20:44;;;;;;;3.03;1.50;;;9.40;81.90;;;;;;4913630;29;20061;-79
2023/12/20 07:23:10;;;;;;;4.45;1.33;;;9.40;82.00;;;;;;4929639;29;20067;-81
2023/12/20 07:25:36;;;;;;;2.08;1.48;;;9.40;82.00;;;;;;4940356;29;20036;-80
2023/12/20 07:28:02;;;;;;;3.03;1.55;;;9.40;81.90;;;;;;4941186;29;20039;-80
2023/12/20 07:30:28;;;;;;;1.35;1.23;;;9.40;81.90;;;;;;4924806;29;20522;-80
2023/12/20 07:32:54;;;;;;;3.20;1.92;;;9.40;82.00;;;;;;4930836;29;20050;-80
2023/12/20 07:35:20;;;;;;;4.20;1.77;;;9.40;82.00;;;;;;4927333;29;20031;-80
2023/12/20 07:37:46;;;;;;;2.13;1.40;;;9.40;82.10;;;;;;4941645;29;20434;-80
2023/12/20 07:40:12;;;;;;;3.03;1.40;;;9.40;82.10;;;;;;4929652;29;20046;-80
2023/12/20 07:42:38;;;;;;;2.78;1.75;;;9.40;82.10;;;;;;4943969;29;20161;-81
2023/12/20 07:45:04;;;;;;;1.55;1.30;;;9.50;82.20;;;;;;4914051;28;20182;-81
2023/12/20 07:47:31;;;;;;;2.05;1.20;;;9.40;82.00;;;;;;4913669;29;20044;-81
2023/12/20 07:49:57;;;;;;;2.38;1.35;;;9.40;82.10;;;;;;4914287;29;20661;-81
2023/12/20 07:52:23;;;;;;;2.60;1.70;;;9.50;82.10;;;;;;4942795;29;20042;-81
2023/12/20 07:54:49;;;;;;;2.80;1.50;;;9.50;82.10;;;;;;4924316;29;20079;-81
2023/12/20 07:57:15;;;;;;;1.58;1.30;;;9.50;82.10;;;;;;4930486;29;20487;-81
2023/12/20 07:59:41;;;;;;;1.98;1.33;;;9.50;82.00;;;;;;4930182;28;20070;-81
2023/12/20 08:02:07;;;;;;;2.50;1.50;;;9.50;82.10;;;;;;4930551;29;20035;-81
2023/12/20 08:04:33;;;;;;;3.45;1.50;;;9.50;82.20;;;;;;4914851;29;20050;-81
2023/12/20 08:07:00;;;;;;;2.42;1.48;;;9.50;82.10;;;;;;4914687;29;20031;-81
2023/12/20 08:09:26;;;;;;;2.30;1.42;;;9.50;82.00;;;;;;4931112;29;20028;-81
2023/12/20 08:11:52;;;;;;;2.35;1.52;;;9.50;82.20;;;;;;4930570;29;20528;-80
2023/12/20 08:14:18;;;;;;;3.08;1.77;;;9.50;82.40;;;;;;4927664;29;20142;-81
2023/12/20 08:16:44;;;;;;;2.83;1.60;;;9.50;82.40;;;;;;4931820;29;20051;-83
2023/12/20 08:19:10;;;;;;;1.40;1.30;;;9.50;82.30;;;;;;4932262;29;20043;-83
2023/12/20 08:21:36;;;;;;;2.60;1.60;;;9.50;82.40;;;;;;4917960;28;20057;-83
2023/12/20 08:24:02;;;;;;;1.58;1.30;;;9.50;82.20;;;;;;4945974;29;20051;-78
2023/12/20 08:26:28;;;;;;;2.08;1.70;;;9.60;82.10;;;;;;4945482;29;20040;-76
2023/12/20 08:28:54;;;;;;;3.47;1.30;;;9.50;82.00;;;;;;4932574;29;20094;-75
2023/12/20 08:31:21;;;;;;;2.75;1.38;;;9.60;82.00;;;;;;4915215;29;20059;-78
2023/12/20 08:33:48;;;;;;;2.67;1.10;;;9.60;81.90;;;;;;4917013;29;20457;-77
2023/12/20 08:36:14;;;;;;;2.45;1.30;;;9.60;81.90;;;;;;4946142;29;20027;-77
2023/12/20 08:38:40;;;;;;;2.67;1.38;;;9.60;81.80;;;;;;4932023;29;20031;-77
2023/12/20 08:41:07;;;;;;;1.80;1.38;;;9.60;81.80;;;;;;4946759;28;20047;-77
2023/12/20 08:43:35;;;;;;;3.38;1.20;;;9.60;81.80;;;;;;4932991;29;20118;-77
2023/12/20 08:46:01;;;;;;;1.40;1.25;;;9.60;81.70;;;;;;4932172;29;20046;-79
2023/12/20 08:48:28;;;;;;;1.52;1.42;;;9.60;81.80;;;;;;4932490;29;20032;-78
2023/12/20 08:50:54;;;;;;;2.40;1.20;;;9.60;81.80;;;;;;4927530;29;20035;-78
2023/12/20 08:53:20;;;;;;;1.83;1.20;;;9.60;81.90;;;;;;4931300;29;20126;-79
2023/12/20 08:55:47;;;;;;;1.90;1.20;;;9.70;81.90;;;;;;4931772;28;20439;-77
2023/12/20 08:58:14;;;;;;;2.25;1.38;;;9.70;81.90;;;;;;4926728;29;20118;-77
2023/12/20 09:00:40;;;;;;;2.72;1.27;;;9.60;81.70;;;;;;4942515;29;20055;-77
2023/12/20 09:03:06;;;;;;;4.53;1.30;;;9.70;81.70;;;;;;4946331;29;20048;-76
2023/12/20 09:05:32;;;;;;;1.98;1.25;;;9.70;81.80;;;;;;4930413;29;20031;-78
2023/12/20 09:07:58;;;;;;;1.88;1.20;;;9.70;81.80;;;;;;4944442;29;20097;-77
2023/12/20 09:10:24;;;;;;;2.15;1.30;;;9.70;81.70;;;;;;4928226;29;20070;-78
2023/12/20 09:12:51;;;;;;;1.45;1.10;;;9.70;81.70;;;;;;4927356;29;20448;-77
2023/12/20 09:15:17;;;;;;;1.30;1.13;;;9.70;81.70;;;;;;4945160;29;20043;-77
2023/12/20 09:17:43;;;;;;;2.67;1.40;;;9.70;81.90;;;;;;4945802;28;20031;-77
2023/12/20 09:20:10;;;;;;;2.72;1.27;;;9.70;81.90;;;;;;4932360;29;20039;-77
2023/12/20 09:22:38;;;;;;;2.08;1.35;;;9.70;81.80;;;;;;4943751;29;20453;-78
2023/12/20 09:25:04;;;;;;;1.15;1.00;;;9.70;82.40;;;;;;4930896;29;20491;-78
2023/12/20 09:27:30;;;;;;;1.92;1.42;;;9.70;81.70;;;;;;4927719;29;20055;-77
2023/12/20 09:29:56;;;;;;;1.75;1.10;;;9.70;81.80;;;;;;4945188;29;20035;-78
2023/12/20 09:32:22;;;;;;;2.35;1.45;;;9.70;81.80;;;;;;4915826;29;20086;-77
2023/12/20 09:34:48;;;;;;;1.73;1.20;;;9.70;81.90;;;;;;4946986;29;20086;-77
2023/12/20 09:37:14;;;;;;;2.03;1.20;;;9.80;81.90;;;;;;4943925;29;20047;-77
2023/12/20 09:39:40;;;;;;;1.30;1.17;;;9.70;81.80;;;;;;4930843;29;20043;-78
2023/12/20 09:42:07;;;;;;;1.63;1.30;;;9.70;81.70;;;;;;4944344;29;20051;-77
2023/12/20 09:44:36;;;;;;;1.83;1.30;;;9.70;81.70;;;;;;4942313;29;20063;-76
2023/12/20 09:47:04;;;;;;;2.85;1.40;;;9.70;81.70;;;;;;4923128;29;20032;-77
2023/12/20 09:49:30;;;;;;;1.75;1.60;;;9.80;81.70;;;;;;4913722;29;20039;-77
2023/12/20 09:51:57;;;;;;;2.42;1.40;;;9.70;81.60;;;;;;4928018;28;20134;-78
2023/12/20 09:54:24;;;;;;;1.60;1.50;;;9.80;81.70;;;;;;4941393;28;20050;-77
2023/12/20 09:56:50;;;;;;;1.55;1.33;;;9.70;81.60;;;;;;4927689;29;20035;-78
2023/12/20 09:59:16;;;;;;;2.17;1.40;;;9.80;81.70;;;;;;4940257;29;20054;-77
2023/12/20 10:01:43;;;;;;;1.85;1.58;;;9.70;81.60;;;;;;4929082;29;20035;-78
2023/12/20 10:04:12;;;;;;;3.03;1.40;;;9.80;81.50;;;;;;4942485;29;20068;-78
2023/12/20 10:06:47;;;;;;;2.67;1.58;;;9.80;81.70;;;;;;4940708;29;20039;-78
2023/12/20 10:09:14;;;;;;;2.42;1.48;;;9.70;81.80;;;;;;4925241;29;20039;-77
2023/12/20 10:11:40;;;;;;;1.98;1.42;;;9.80;81.80;;;;;;4942016;29;20034;-76
2023/12/20 10:14:07;;;;;;;1.77;1.63;;;9.70;81.70;;;;;;4924173;28;20406;-77
2023/12/20 10:16:34;;;;;;;2.30;1.25;;;9.70;81.70;;;;;;4942489;29;20039;-77
2023/12/20 10:19:04;;;;;;;1.85;1.20;;;9.70;81.70;;;;;;4927865;29;20059;-76
2023/12/20 10:21:30;;;;;;;3.33;1.20;;;9.80;81.90;;;;;;4925046;29;20039;-76
2023/12/20 10:23:56;;;;;;;4.05;1.40;;;9.80;82.00;;;;;;4942271;29;20553;-76
2023/12/20 10:26:24;;;;;;;2.10;1.63;;;9.80;82.10;;;;;;4939112;29;20470;-77
2023/12/20 10:28:53;;;;;;;2.22;1.35;;;9.80;82.20;;;;;;4924721;29;20044;-77
2023/12/20 10:31:33;;;;;;;2.53;1.70;;;9.80;82.10;;;;;;4927392;29;20406;-75
2023/12/20 10:34:01;;;;;;;1.92;1.48;;;9.80;82.10;;;;;;4919799;29;20038;-76
2023/12/20 10:36:31;;;;;;;1.60;1.50;;;9.70;82.00;;;;;;4943001;28;20502;-76
2023/12/20 10:38:58;;;;;;;2.25;1.80;;;9.70;82.00;;;;;;4925994;29;20031;-77
2023/12/20 10:41:35;;;;;;;2.35;1.50;;;9.70;82.10;;;;;;4928140;29;20490;-77
2023/12/20 10:44:03;;;;;;;1.55;1.30;;;9.70;82.20;;;;;;4922636;29;21290;-78
2023/12/20 10:46:30;;;;;;;3.38;1.75;;;9.70;82.30;;;;;;4922647;29;20032;-78
2023/12/20 10:48:57;;;;;;;2.42;1.70;;;9.70;82.20;;;;;;4923537;29;20031;-77
2023/12/20 10:51:26;;;;;;;2.10;1.90;;;9.70;82.20;;;;;;4926292;29;20030;-78
2023/12/20 10:53:55;;;;;;;1.80;1.67;;;9.70;82.20;;;;;;4941862;29;20415;-77
2023/12/20 10:56:21;;;;;;;2.47;1.90;;;9.70;82.40;;;;;;4938518;29;20031;-78
2023/12/20 10:58:49;;;;;;;1.98;1.77;;;9.80;82.30;;;;;;4942082;29;20031;-77
2023/12/20 11:01:17;;;;;;;2.22;1.80;;;9.70;82.30;;;;;;4939860;29;20055;-76
2023/12/20 11:03:49;;;;;;;2.42;1.80;;;9.80;82.40;;;;;;4941867;29;20167;-78
2023/12/20 11:06:56;;;;;;;1.98;1.50;;;9.70;82.30;;;;;;4939736;29;20081;-78
2023/12/20 11:09:22;;;;;;;;;;;9.70;82.40;;;;;;4857737;29;20045;-76
2023/12/20 11:11:56;;;;;;;;;;;9.80;82.40;;;;;;4858237;29;19920;-76
2023/12/20 11:14:48;;;;;;;2.40;1.50;;;9.70;82.30;;;;;;4857479;29;19923;-76
2023/12/20 11:17:16;;;;;;;1.80;1.42;;;9.70;82.30;;;;;;4830699;29;20045;-78
2023/12/20 11:20:01;;;;;;;1.67;1.35;;;9.80;82.40;;;;;;4841577;29;20130;-78
2023/12/20 11:22:30;;;;;;;1.55;1.45;;;9.70;82.50;;;;;;4845130;29;20732;-76
2023/12/20 11:25:10;;;;;;;1.90;1.27;;;9.80;82.50;;;;;;4855971;29;20197;-77
2023/12/20 11:27:40;;;;;;;1.63;1.38;;;9.80;82.40;;;;;;4857352;29;20036;-77
2023/12/20 11:30:08;;;;;;;2.20;1.30;;;9.80;82.30;;;;;;4846404;29;20056;-78
2023/12/20 11:32:37;;;;;;;1.67;1.20;;;9.80;82.10;;;;;;4856530;29;20453;-77
2023/12/20 11:35:10;;;;;;;1.58;1.20;;;9.80;82.00;;;;;;4857299;29;20041;-77
2023/12/20 11:37:37;;;;;;;3.13;1.38;;;9.70;81.80;;;;;;4830779;29;20417;-76
2023/12/20 11:40:07;;;;;;;1.27;1.17;;;9.70;81.70;;;;;;4840447;29;20145;-76
2023/12/20 11:42:48;;;;;;;1.60;1.45;;;9.80;81.70;;;;;;4873880;29;20027;-76
2023/12/20 11:45:19;;;;;;;1.60;1.27;;;9.70;81.60;;;;;;4940226;28;20047;-76
2023/12/20 11:47:55;;;;;;;1.48;1.30;;;9.70;81.60;;;;;;4938707;29;20039;-77
2023/12/20 11:50:23;;;;;;;1.77;1.40;;;9.80;81.70;;;;;;4942429;29;20040;-77
2023/12/20 11:52:50;;;;;;;2.03;1.23;;;9.70;81.60;;;;;;4943262;29;20106;-78
2023/12/20 11:55:16;;;;;;;1.67;1.38;;;9.80;81.60;;;;;;4944883;29;20042;-77
2023/12/20 11:57:43;;;;;;;2.08;1.20;;;9.80;81.60;;;;;;4931553;29;20045;-78
2023/12/20 12:00:10;;;;;;;2.97;1.60;;;9.80;82.00;;;;;;4943613;29;20051;-78
2023/12/20 12:02:39;;;;;;;2.83;1.05;;;9.70;81.50;;;;;;4931934;29;20039;-77
2023/12/20 12:05:05;;;;;;;1.30;1.08;;;9.70;81.40;;;;;;4945952;29;20055;-78
2023/12/20 12:07:32;;;;;;;1.67;1.40;;;9.70;81.40;;;;;;4927256;29;20406;-78
2023/12/20 12:09:58;;;;;;;1.20;1.10;;;9.70;81.40;;;;;;4927525;29;20049;-78
2023/12/20 12:12:26;;;;;;;2.17;1.20;;;9.80;81.30;;;;;;4944198;29;20091;-78
2023/12/20 12:14:53;;;;;;;1.95;1.15;;;9.80;81.50;;;;;;4942546;29;20623;-77
2023/12/20 12:17:44;;;;;;;0.98;0.88;;;9.80;81.50;;;;;;4927019;29;20042;-77
2023/12/20 12:20:11;;;;;;;1.75;1.30;;;9.80;81.40;;;;;;4925739;29;20538;-78
2023/12/20 12:22:37;;;;;;;1.55;1.10;;;9.80;81.40;;;;;;4942669;29;20135;-78
2023/12/20 12:25:14;;;;;;;1.65;1.17;;;9.80;81.80;;;;;;4944585;29;20122;-78
2023/12/20 12:27:41;;;;;;;1.02;0.95;;;9.80;81.40;;;;;;4927859;29;20051;-76
2023/12/20 12:30:09;;;;;;;1.08;0.98;;;9.80;81.40;;;;;;4943381;29;20074;-76
2023/12/20 12:32:36;;;;;;;1.00;1.00;;;9.80;81.30;;;;;;4927774;29;20656;-76
2023/12/20 12:35:09;;;;;;;1.67;1.30;;;9.80;81.20;;;;;;4928251;29;20121;-79
2023/12/20 12:37:39;;;;;;;1.00;0.98;;;9.80;81.20;;;;;;4942197;29;20775;-77
2023/12/20 12:40:17;;;;;;;2.83;1.20;;;9.70;81.20;;;;;;4942156;29;20061;-77
2023/12/20 12:42:45;;;;;;;2.13;1.20;;;9.70;81.10;;;;;;4926956;29;20031;-77
2023/12/20 12:45:11;;;;;;;1.33;1.10;;;9.80;81.20;;;;;;4940749;29;20035;-77
2023/12/20 12:47:38;;;;;;;1.58;1.15;;;9.80;81.20;;;;;;4911827;29;20038;-77
2023/12/20 12:50:05;;;;;;;1.55;1.17;;;9.80;81.40;;;;;;4942306;29;20123;-77
2023/12/20 12:52:31;;;;;;;2.97;1.17;;;9.70;81.90;;;;;;4942260;29;20380;-77
2023/12/20 12:54:57;;;;;;;1.50;1.40;;;9.70;81.90;;;;;;4922461;29;20050;-76
2023/12/20 12:57:23;;;;;;;1.90;1.20;;;9.70;81.20;;;;;;4929374;29;20035;-76